Terminal Aerodrome Forecast
Issued by NWS Charleston, WV

Current Version | Previous Version | Text Only | Print | Product List | Glossary On
Versions: 1 2 3 4 5 6 7 8 9 10 11 12 13 14 15 16 17 18 19 20 21 22 23
000
FTUS41 KRLX 041844 AAA
TAFBKW
TAF AMD
KBKW 041844Z 0419/0518 24008G14KT P6SM SCT030
     FM050000 VRB03KT P6SM SCT035
     FM050500 00000KT 6SM BR BKN025
     FM051300 32004KT P6SM BKN030
     FM051400 32004KT P6SM SCT035=

USA.gov is the U.S. government's official web portal to all federal, state and local government web resources and services.